createdAt,value
2015-02-20T10:20:15.725Z,0
2015-02-20T10:20:25.303Z,0
2015-02-20T10:20:35.209Z,0
2015-02-20T10:20:45.163Z,0
2015-02-20T10:20:54.038Z,0
2015-02-20T10:21:03.525Z,0
2015-02-20T10:21:12.962Z,0
2015-02-20T10:21:21.962Z,0
2015-02-20T10:21:31.462Z,0
2015-02-20T10:21:40.228Z,0
2015-02-20T10:21:48.931Z,0
2015-02-20T10:21:57.824Z,0
2015-02-20T10:25:16.690Z,1
2015-02-20T10:25:26.050Z,1
2015-02-20T10:25:35.050Z,1
2015-02-20T10:25:43.737Z,1
2015-02-20T10:25:52.659Z,1
2015-02-20T10:26:01.520Z,1
2015-02-20T10:26:10.364Z,1
2015-02-20T10:26:19.208Z,1
2015-02-20T10:26:28.036Z,1
2015-02-20T10:26:36.786Z,1
2015-02-20T10:26:45.614Z,1
2015-02-20T10:26:54.491Z,1
2015-02-20T10:27:03.397Z,1
2015-02-20T10:27:12.225Z,1
2015-02-20T10:27:22.179Z,1
2015-02-20T10:27:33.616Z,1
2015-02-20T10:27:42.429Z,1
2015-02-20T10:27:51.257Z,1
2015-02-20T10:28:00.135Z,1
2015-02-20T10:28:08.978Z,1
2015-02-20T10:28:18.447Z,1
2015-02-20T10:28:29.369Z,1
2015-02-20T10:28:38.369Z,0
2015-02-20T10:28:47.275Z,0
2015-02-20T10:28:57.324Z,0
2015-02-20T10:29:46.871Z,0
2015-02-20T10:29:56.311Z,0
2015-02-20T10:30:05.061Z,0
2015-02-20T10:30:14.936Z,0
2015-02-20T10:30:24.811Z,0
2015-02-20T10:30:33.639Z,0
2015-02-20T10:30:42.482Z,0
2015-02-20T10:30:51.482Z,0
2015-02-20T10:31:01.016Z,0
2015-02-20T10:31:09.828Z,0
2015-02-20T10:31:18.719Z,0
2015-02-20T10:31:27.469Z,0
2015-02-20T10:31:36.344Z,0
2015-02-20T10:31:45.109Z,0
2015-02-20T10:31:53.953Z,0
2015-02-20T10:32:02.800Z,0
2015-02-20T10:34:36.976Z,0
2015-02-20T10:34:45.804Z,0
2015-02-20T10:34:54.603Z,0
2015-02-20T10:35:03.431Z,0
2015-02-20T10:35:12.228Z,0
2015-02-20T10:35:20.993Z,0
2015-02-20T10:35:29.681Z,0
2015-02-20T10:35:38.431Z,0
2015-02-20T10:35:47.493Z,0
2015-02-20T10:35:57.450Z,0
2015-02-20T10:36:07.668Z,0
2015-02-20T10:36:16.778Z,0
2015-02-20T10:36:26.168Z,0
2015-02-20T10:36:34.965Z,0
2015-02-20T10:36:43.762Z,0
2015-02-20T10:36:52.465Z,0
2015-02-20T10:37:02.420Z,0
2015-02-20T10:37:11.092Z,0
2015-02-20T10:37:19.905Z,0
2015-02-20T10:37:28.733Z,0
2015-02-20T10:37:37.670Z,0
2015-02-20T10:37:47.202Z,0
2015-02-20T10:37:56.673Z,0
2015-02-20T10:38:05.345Z,0
2015-02-20T10:38:14.189Z,0
2015-02-20T10:54:31.756Z,40
2015-02-20T10:54:40.881Z,40
2015-02-20T10:54:49.694Z,40
2015-02-20T10:54:58.400Z,39
2015-02-20T10:55:07.228Z,38
2015-02-20T10:55:16.540Z,33
2015-02-20T10:55:25.369Z,32
2015-02-20T10:55:34.994Z,31
2015-02-20T10:55:43.884Z,30
2015-02-20T10:55:52.650Z,31
2015-02-20T10:56:01.464Z,28
2015-02-20T10:56:10.386Z,29
2015-02-20T10:56:19.636Z,29
2015-02-20T10:56:28.605Z,29
2015-02-20T10:56:37.449Z,28
2015-02-20T10:56:46.277Z,28
2015-02-20T10:56:55.058Z,28
2015-02-20T10:57:03.966Z,28
2015-02-20T10:57:12.716Z,28
2015-02-20T10:57:21.638Z,28
2015-02-20T10:57:33.294Z,28
2015-02-20T10:57:41.998Z,27
2015-02-20T10:57:50.966Z,27
2015-02-20T10:57:59.829Z,27
2015-02-20T10:58:08.610Z,27
2015-02-20T10:58:17.704Z,27
2015-02-20T10:58:27.797Z,27
2015-02-20T11:11:39.999Z,23
2015-02-20T11:11:48.937Z,23
2015-02-20T11:11:57.890Z,23
2015-02-20T11:12:06.783Z,23
2015-02-20T11:12:15.533Z,23
2015-02-20T11:12:24.298Z,23
2015-02-20T11:12:33.189Z,23
2015-02-20T11:12:41.939Z,23
2015-02-20T11:12:50.829Z,23
2015-02-20T11:12:59.675Z,23
2015-02-20T11:13:08.363Z,23
2015-02-20T11:13:18.222Z,23
2015-02-20T11:13:28.269Z,23
2015-02-20T11:13:36.956Z,23
2015-02-20T11:13:45.706Z,23
2015-02-20T11:13:54.472Z,23
2015-02-20T11:14:03.771Z,23
2015-02-20T11:14:12.552Z,23
2015-02-20T11:14:23.599Z,23
2015-02-20T11:14:32.490Z,23
2015-02-20T11:14:42.583Z,23
2015-02-20T11:14:51.490Z,23
2015-02-20T11:15:00.649Z,23
2015-02-20T11:15:13.415Z,23
2015-02-20T11:15:23.196Z,23
2015-02-20T11:15:32.040Z,23
2015-02-20T11:15:40.883Z,23
2015-02-20T11:15:49.821Z,23
2015-02-20T11:15:58.524Z,23
2015-02-20T11:16:08.276Z,23
2015-02-20T11:16:18.276Z,23
2015-02-20T11:16:27.479Z,23
2015-02-20T11:16:37.135Z,23
2015-02-20T11:16:47.057Z,23
2015-02-20T11:16:56.760Z,23
2015-02-20T11:17:05.591Z,23
2015-02-20T11:17:14.373Z,23
2015-02-20T11:17:23.888Z,23
2015-02-20T11:17:32.763Z,23
2015-02-20T11:17:41.607Z,23
2015-02-20T11:17:50.295Z,23
2015-02-20T11:17:59.218Z,23
2015-02-20T11:18:08.047Z,23
2015-02-20T11:18:16.812Z,23
2015-02-20T11:18:26.640Z,23
2015-02-20T11:18:35.531Z,23
2015-02-20T11:18:44.422Z,23
2015-02-20T11:18:53.187Z,23
2015-02-20T11:19:02.830Z,23
2015-02-20T11:19:12.752Z,23
2015-02-20T11:19:21.642Z,23
2015-02-20T11:19:30.439Z,23
2015-02-20T11:19:39.283Z,23
2015-02-20T11:19:48.064Z,23
2015-02-20T11:19:56.830Z,23
2015-02-20T11:20:06.941Z,23
2015-02-20T11:20:15.754Z,23
2015-02-20T11:20:24.644Z,23
2015-02-20T11:20:34.113Z,23
2015-02-20T11:20:42.879Z,23
2015-02-20T11:20:51.722Z,23
2015-02-20T11:21:00.554Z,23
2015-02-20T11:21:10.116Z,23
2015-02-20T11:21:18.882Z,23
2015-02-20T11:21:27.788Z,23
2015-02-20T11:21:36.554Z,23
2015-02-20T11:21:45.460Z,23
2015-02-20T11:21:54.288Z,23
2015-02-20T11:22:03.165Z,23
2015-02-20T11:22:11.852Z,23
2015-02-20T11:22:20.696Z,23
2015-02-20T11:22:29.462Z,23
2015-02-20T11:22:39.181Z,23
2015-02-20T11:22:49.024Z,23
2015-02-20T11:22:57.931Z,24
2015-02-20T11:23:32.309Z,24
2015-02-20T11:23:41.215Z,24
2015-02-20T11:23:51.043Z,23
2015-02-20T11:24:00.842Z,23
2015-02-20T11:24:09.717Z,23
2015-02-20T11:24:18.639Z,22
2015-02-20T11:24:27.482Z,22
2015-02-20T11:24:36.420Z,22
2015-02-20T11:24:45.248Z,22
2015-02-20T11:24:55.967Z,21
2015-02-20T11:25:04.891Z,21
2015-02-20T11:25:14.109Z,21
2015-02-20T11:25:23.563Z,21
2015-02-20T11:25:33.859Z,20
2015-02-20T11:25:44.563Z,20
2015-02-20T11:25:54.094Z,20
2015-02-20T11:26:03.659Z,20
2015-02-20T11:26:13.222Z,20
2015-02-20T11:26:22.612Z,19
2015-02-20T11:26:31.456Z,19
2015-02-20T11:26:42.816Z,20
2015-02-20T11:26:51.722Z,20
2015-02-20T11:27:00.630Z,21
2015-02-20T11:27:09.427Z,22
2015-02-20T11:27:19.161Z,22
2015-02-20T11:27:28.099Z,23
2015-02-20T11:27:38.302Z,24
2015-02-20T11:27:47.083Z,24
2015-02-20T11:27:55.911Z,25
2015-02-20T11:28:04.710Z,25
2015-02-20T11:28:13.476Z,26
2015-02-20T11:28:22.320Z,26
2015-02-20T11:28:31.101Z,27
2015-02-20T11:28:40.648Z,27
2015-02-20T11:28:49.585Z,28
2015-02-20T11:28:58.273Z,28
2015-02-20T11:29:07.118Z,28
2015-02-20T11:29:16.025Z,29
2015-02-20T11:29:26.509Z,29
2015-02-20T11:29:36.337Z,30
2015-02-20T11:29:45.306Z,30
2015-02-20T11:29:54.087Z,30
2015-02-20T11:30:02.887Z,31
2015-02-20T11:30:11.684Z,31
2015-02-20T11:30:21.715Z,31
2015-02-20T11:30:31.028Z,31
2015-02-20T11:30:39.950Z,32
2015-02-20T11:30:49.043Z,32
2015-02-20T11:30:58.543Z,33
2015-02-20T11:31:09.530Z,33
2015-02-20T11:31:18.467Z,33
2015-02-20T11:31:27.248Z,33
2015-02-20T11:31:36.061Z,33
2015-02-20T11:31:44.936Z,33
2015-02-20T11:31:53.998Z,33
2015-02-20T11:32:02.922Z,33
2015-02-20T11:32:13.454Z,33
2015-02-20T11:32:22.922Z,34
2015-02-20T11:32:32.329Z,34
2015-02-20T11:32:41.438Z,34
2015-02-20T11:32:51.110Z,34
2015-02-20T11:33:00.094Z,34
2015-02-20T11:33:08.847Z,34
2015-02-20T11:33:17.644Z,34
2015-02-20T11:33:26.566Z,34
2015-02-20T11:33:35.410Z,34
2015-02-20T11:33:44.113Z,34
2015-02-20T11:33:53.597Z,34
2015-02-20T11:34:03.005Z,34
2015-02-20T11:34:12.615Z,34
2015-02-20T11:34:21.771Z,34
2015-02-20T11:34:30.943Z,34
2015-02-20T11:34:39.771Z,34
2015-02-20T11:34:49.005Z,35
2015-02-20T11:34:57.787Z,35
2015-02-20T11:35:06.539Z,35
2015-02-20T11:35:16.132Z,35
2015-02-20T11:35:26.070Z,35
2015-02-20T11:35:35.476Z,35
2015-02-20T11:35:44.492Z,35
2015-02-20T11:35:53.789Z,35
2015-02-20T11:36:03.166Z,35
2015-02-20T11:36:12.806Z,35
2015-02-20T11:36:22.619Z,35
2015-02-20T11:36:32.900Z,35
2015-02-20T11:36:41.744Z,35
2015-02-20T11:36:50.681Z,35
2015-02-20T11:37:00.572Z,35
2015-02-20T11:37:10.918Z,35
2015-02-20T11:37:20.230Z,35
2015-02-20T11:37:29.480Z,35
2015-02-20T11:37:38.465Z,35
2015-02-20T11:37:47.324Z,35
2015-02-20T11:37:57.199Z,35
2015-02-20T11:38:07.233Z,35
2015-02-20T11:38:16.421Z,35
2015-02-20T11:38:25.358Z,35
2015-02-20T11:38:34.249Z,35
2015-02-20T11:38:43.171Z,35
2015-02-20T11:38:52.171Z,35
2015-02-20T11:39:01.001Z,35
2015-02-20T11:39:10.063Z,35
2015-02-20T11:39:20.407Z,35
2015-02-20T11:39:29.766Z,35
2015-02-20T11:39:39.251Z,35
2015-02-20T11:39:48.079Z,35
2015-02-20T11:39:57.063Z,35
2015-02-20T11:40:06.690Z,35
2015-02-20T11:40:15.940Z,35
2015-02-20T11:40:24.768Z,35
2015-02-20T11:40:33.550Z,35
2015-02-20T11:40:42.425Z,35
2015-02-20T11:40:51.472Z,35
2015-02-20T11:41:01.115Z,35
2015-02-20T11:41:10.771Z,35
2015-02-20T11:41:19.553Z,35
2015-02-20T11:41:28.459Z,35
2015-02-20T11:41:38.021Z,35
2015-02-20T11:41:47.021Z,35
2015-02-20T11:41:56.678Z,35
2015-02-20T11:42:06.273Z,35
2015-02-20T11:42:15.180Z,35
2015-02-20T11:42:24.039Z,35
2015-02-20T11:42:32.883Z,34
2015-02-20T11:42:41.773Z,34
2015-02-20T11:42:50.664Z,34
2015-02-20T11:42:59.570Z,34
2015-02-20T11:43:09.636Z,34
2015-02-20T11:43:18.542Z,34
2015-02-20T11:43:27.495Z,35
2015-02-20T11:43:36.448Z,34
2015-02-20T11:43:45.511Z,34
2015-02-20T11:43:54.417Z,34
2015-02-20T11:44:03.960Z,34
2015-02-20T11:44:13.038Z,34
2015-02-20T11:44:21.929Z,35
2015-02-20T11:44:30.882Z,34
2015-02-20T11:44:39.882Z,34
2015-02-20T11:44:48.992Z,34
2015-02-20T11:44:58.070Z,34
2015-02-20T11:45:07.100Z,34
2015-02-20T11:45:16.678Z,34
2015-02-20T11:45:25.522Z,34
2015-02-20T11:45:35.569Z,34
2015-02-20T11:45:45.382Z,34
2015-02-20T11:45:54.257Z,34
2015-02-20T11:46:03.037Z,34
2015-02-20T11:46:11.787Z,34
2015-02-20T11:46:20.568Z,34
2015-02-20T11:46:31.053Z,34
2015-02-20T11:46:40.631Z,34
2015-02-20T11:46:49.568Z,34
2015-02-20T11:46:58.443Z,34
2015-02-20T11:47:07.303Z,34
2015-02-20T11:47:16.350Z,34
2015-02-20T11:47:26.256Z,34
2015-02-20T11:47:35.178Z,34
2015-02-20T11:47:50.741Z,34
2015-02-20T11:47:59.944Z,34
2015-02-20T11:48:09.333Z,34
2015-02-20T11:48:18.583Z,34
2015-02-20T11:48:28.770Z,34
2015-02-20T11:48:38.380Z,34
2015-02-20T11:48:47.380Z,34
2015-02-20T11:48:56.364Z,34
2015-02-20T11:49:05.170Z,34
2015-02-20T11:49:14.123Z,34
2015-02-20T11:49:22.889Z,34
2015-02-20T11:49:31.717Z,34
2015-02-20T11:49:40.482Z,34
2015-02-20T11:49:49.295Z,34
2015-02-20T11:49:58.139Z,34
2015-02-20T11:50:06.849Z,34
2015-02-20T11:50:15.786Z,34
2015-02-20T11:50:25.489Z,34
2015-02-20T11:50:34.552Z,34
2015-02-20T11:50:44.755Z,34
2015-02-20T11:50:53.505Z,34
2015-02-20T11:51:02.355Z,34
2015-02-20T11:51:11.199Z,34
2015-02-20T11:51:19.902Z,34
2015-02-20T11:51:28.699Z,34
2015-02-20T11:51:37.495Z,34
2015-02-20T11:51:46.308Z,34
2015-02-20T11:51:55.136Z,34
2015-02-20T11:52:04.049Z,34
2015-02-20T11:52:12.784Z,34
2015-02-20T11:52:21.674Z,34
2015-02-20T11:52:30.612Z,34
2015-02-20T11:52:39.518Z,34
2015-02-20T11:52:49.002Z,34
2015-02-20T11:52:57.893Z,34
2015-02-20T11:53:06.698Z,34
2015-02-20T11:53:15.495Z,33
2015-02-20T11:53:24.542Z,33
2015-02-20T11:53:34.245Z,33
2015-02-20T11:53:43.245Z,33
2015-02-20T11:53:52.073Z,33
2015-02-20T11:54:01.464Z,33
2015-02-20T11:54:10.311Z,33
2015-02-20T11:54:19.374Z,33
2015-02-20T11:54:29.780Z,33
2015-02-20T11:54:38.655Z,33
2015-02-20T11:54:47.452Z,33
2015-02-20T11:54:56.264Z,33
2015-02-20T11:55:05.065Z,33
2015-02-20T11:55:14.909Z,33
2015-02-20T11:55:24.222Z,33
2015-02-20T11:55:33.956Z,33
2015-02-20T11:55:42.956Z,33
2015-02-20T11:55:52.581Z,33
2015-02-20T11:56:01.565Z,33
2015-02-20T11:56:11.710Z,33
2015-02-20T11:56:21.882Z,33
2015-02-20T11:56:30.601Z,33
2015-02-20T11:56:39.397Z,33
2015-02-20T11:56:48.101Z,33
2015-02-20T11:56:56.944Z,33
2015-02-20T11:57:05.731Z,33
2015-02-20T11:57:14.637Z,33
2015-02-20T11:57:24.543Z,33
2015-02-20T11:57:33.387Z,33
2015-02-20T11:57:42.168Z,33
2015-02-20T11:57:51.262Z,33
2015-02-20T11:58:00.746Z,33
2015-02-20T11:58:09.531Z,33
2015-02-20T11:58:19.688Z,33
2015-02-20T11:58:28.485Z,33
2015-02-20T11:58:37.203Z,33
2015-02-20T11:58:46.047Z,33
2015-02-20T11:58:54.844Z,33
2015-02-20T11:59:05.003Z,33
2015-02-20T11:59:15.238Z,33
2015-02-20T11:59:24.456Z,33
2015-02-20T11:59:34.316Z,33
2015-02-20T11:59:43.394Z,33
2015-02-20T11:59:52.503Z,33
2015-02-20T12:00:02.659Z,33
2015-02-20T12:00:13.036Z,33
2015-02-20T12:00:22.240Z,33
2015-02-20T12:00:31.349Z,33
2015-02-20T12:00:41.068Z,33
2015-02-20T12:00:51.505Z,33
2015-02-20T12:01:00.771Z,33
2015-02-20T12:01:09.696Z,33
2015-02-20T12:01:20.039Z,33
2015-02-20T12:01:28.805Z,33
2015-02-20T12:01:37.868Z,33
2015-02-20T12:01:46.664Z,33
2015-02-20T12:01:55.446Z,33
2015-02-20T12:02:04.214Z,33
2015-02-20T12:02:13.089Z,33
2015-02-20T12:02:22.121Z,33
2015-02-20T12:02:31.136Z,33
2015-02-20T12:02:40.027Z,33
2015-02-20T12:02:49.886Z,33
2015-02-20T12:02:59.761Z,33
2015-02-20T12:03:08.544Z,33
2015-02-20T12:03:17.248Z,33
2015-02-20T12:03:26.013Z,33
2015-02-20T12:03:34.810Z,33
2015-02-20T12:03:43.669Z,33
2015-02-20T12:03:54.935Z,33
2015-02-20T12:04:03.845Z,33
2015-02-20T12:04:12.752Z,33
2015-02-20T12:04:21.783Z,33
2015-02-20T12:04:30.611Z,34
2015-02-20T12:04:39.455Z,34
2015-02-20T12:04:48.377Z,34
2015-02-20T12:04:58.033Z,34
2015-02-20T12:05:07.644Z,34
2015-02-20T12:05:16.550Z,34
2015-02-20T12:05:25.394Z,34
2015-02-20T12:05:34.160Z,34
2015-02-20T12:05:43.535Z,34
2015-02-20T12:05:52.394Z,34
2015-02-20T12:06:03.507Z,34
2015-02-20T12:06:12.585Z,34
2015-02-20T12:06:22.569Z,34
2015-02-20T12:06:31.507Z,34
2015-02-20T12:06:40.428Z,34
2015-02-20T12:06:49.194Z,34
2015-02-20T12:06:57.975Z,34
2015-02-20T12:07:06.805Z,34
2015-02-20T12:07:15.852Z,34
2015-02-20T12:07:24.555Z,34
2015-02-20T12:07:33.337Z,34
2015-02-20T12:07:42.321Z,34
2015-02-20T12:07:52.321Z,34
2015-02-20T12:08:01.071Z,34
2015-02-20T12:08:09.855Z,34
2015-02-20T12:08:19.105Z,34
2015-02-20T12:08:27.918Z,34
2015-02-20T12:08:36.668Z,34
2015-02-20T12:08:46.293Z,34
2015-02-20T12:08:56.215Z,34
2015-02-20T12:09:04.935Z,34
2015-02-20T12:09:13.810Z,34
2015-02-20T12:09:23.404Z,34
2015-02-20T12:09:32.295Z,34
2015-02-20T12:09:42.217Z,34
2015-02-20T12:09:52.498Z,34
2015-02-20T12:10:01.342Z,34
2015-02-20T12:10:10.188Z,34
2015-02-20T12:10:19.126Z,34
2015-02-20T12:10:27.892Z,34
2015-02-20T12:10:36.720Z,34
2015-02-20T12:10:45.423Z,34
2015-02-20T12:10:54.126Z,34
2015-02-20T12:11:02.892Z,34
2015-02-20T12:11:11.737Z,34
2015-02-20T12:11:20.690Z,34
2015-02-20T12:11:29.706Z,34
2015-02-20T12:11:40.003Z,34
2015-02-20T12:11:48.909Z,34
2015-02-20T12:11:57.737Z,34
2015-02-20T12:12:06.521Z,34
2015-02-20T12:12:15.349Z,34
2015-02-20T12:12:24.458Z,34
2015-02-20T12:12:34.396Z,34
2015-02-20T12:12:43.771Z,34
2015-02-20T12:12:52.677Z,34
2015-02-20T12:13:02.224Z,34
2015-02-20T12:13:10.976Z,34
2015-02-20T12:13:19.663Z,34
2015-02-20T12:13:30.085Z,34
2015-02-20T12:13:39.913Z,34
2015-02-20T12:13:48.616Z,34
2015-02-20T12:13:57.460Z,34
2015-02-20T12:14:06.962Z,34
2015-02-20T12:14:16.525Z,34
2015-02-20T12:14:26.040Z,34
2015-02-20T12:14:34.900Z,34
2015-02-20T12:14:43.587Z,34
2015-02-20T12:14:52.478Z,34
2015-02-20T12:15:01.884Z,34
2015-02-20T12:15:10.574Z,34
2015-02-20T12:15:19.543Z,34
2015-02-20T12:15:29.481Z,34
2015-02-20T12:15:38.168Z,34
2015-02-20T12:15:46.840Z,34
2015-02-20T12:15:55.699Z,34
2015-02-20T12:16:05.155Z,34
2015-02-20T12:16:13.858Z,34
2015-02-20T12:16:22.545Z,34
2015-02-20T12:16:31.373Z,34
2015-02-20T12:16:40.889Z,34
2015-02-20T12:16:51.811Z,34
2015-02-20T12:17:00.561Z,34
2015-02-20T12:17:09.329Z,34
2015-02-20T12:17:18.142Z,34
2015-02-20T12:17:26.923Z,34
2015-02-20T12:17:35.751Z,34
2015-02-20T12:17:45.579Z,34
2015-02-20T12:17:55.298Z,34
2015-02-20T12:18:04.033Z,34
2015-02-20T12:18:12.988Z,34
2015-02-20T12:18:21.738Z,34
2015-02-20T12:18:31.378Z,34
2015-02-20T12:18:40.331Z,34
2015-02-20T12:18:49.972Z,34
2015-02-20T12:18:58.816Z,34
2015-02-20T12:19:07.569Z,34
2015-02-20T12:19:16.256Z,34
2015-02-20T12:19:25.084Z,34
2015-02-20T12:19:33.772Z,34
2015-02-20T12:19:42.616Z,34
2015-02-20T12:19:52.538Z,34
2015-02-20T12:20:01.444Z,34
2015-02-20T12:20:10.977Z,34
2015-02-20T12:20:19.774Z,34
2015-02-20T12:20:28.524Z,34
2015-02-20T12:20:38.383Z,34
2015-02-20T12:20:48.352Z,34
2015-02-20T12:20:57.102Z,34
2015-02-20T12:21:06.760Z,34
2015-02-20T12:21:15.713Z,34
2015-02-20T12:21:24.870Z,34
2015-02-20T12:21:35.042Z,34
2015-02-20T12:21:45.376Z,34
2015-02-20T12:21:54.375Z,34
2015-02-20T12:22:04.095Z,34
2015-02-20T12:22:13.000Z,34
2015-02-20T12:22:21.748Z,34
2015-02-20T12:22:30.453Z,34
2015-02-20T12:22:39.240Z,34
2015-02-20T12:22:48.227Z,34
2015-02-20T12:22:57.195Z,34
2015-02-20T12:23:05.913Z,34
2015-02-20T12:23:14.652Z,34
2015-02-20T12:23:23.499Z,34
2015-02-20T12:23:33.154Z,34
2015-02-20T12:23:42.925Z,34
2015-02-20T12:23:51.813Z,34
2015-02-20T12:24:00.626Z,34
2015-02-20T12:24:09.318Z,34
2015-02-20T12:24:20.170Z,34
2015-02-20T12:24:28.973Z,34
2015-02-20T12:24:37.660Z,34
2015-02-20T12:24:46.369Z,34
2015-02-20T12:24:55.156Z,34
2015-02-20T12:25:03.857Z,34
2015-02-20T12:25:13.991Z,34
2015-02-20T12:25:24.072Z,34
2015-02-20T12:25:32.878Z,34
2015-02-20T12:25:41.646Z,34
2015-02-20T12:25:50.436Z,34
2015-02-20T12:25:59.845Z,34
2015-02-20T12:26:09.866Z,34
2015-02-20T12:26:18.605Z,34
2015-02-20T12:26:27.493Z,34
2015-02-20T12:26:36.315Z,34
2015-02-20T12:26:45.273Z,34
2015-02-20T12:26:54.182Z,34
2015-02-20T12:27:03.109Z,34
2015-02-20T12:27:11.867Z,34
2015-02-20T12:27:20.656Z,34
2015-02-20T12:27:29.428Z,34
2015-02-20T12:27:38.109Z,34
2015-02-20T12:27:46.879Z,34
2015-02-20T12:27:56.272Z,34
2015-02-20T12:28:05.102Z,34
2015-02-20T12:28:16.018Z,34
2015-02-20T12:28:25.019Z,34
2015-02-20T12:28:34.089Z,34
2015-02-20T12:28:42.928Z,34
2015-02-20T12:28:51.768Z,34
2015-02-20T12:29:01.271Z,34
2015-02-20T12:29:11.026Z,33
2015-02-20T12:29:21.044Z,33
2015-02-20T12:29:29.921Z,33
2015-02-20T12:29:38.694Z,33
2015-02-20T12:29:47.383Z,33
2015-02-20T12:29:56.275Z,33
2015-02-20T12:30:05.287Z,33
2015-02-20T12:30:14.344Z,33
2015-02-20T12:30:23.904Z,33
2015-02-20T12:30:32.788Z,33
2015-02-20T12:30:41.633Z,33
2015-02-20T12:30:50.439Z,33
2015-02-20T12:30:59.143Z,33
2015-02-20T12:31:07.970Z,33
2015-02-20T12:31:16.730Z,33
2015-02-20T12:31:25.529Z,33
2015-02-20T12:31:34.409Z,33
2015-02-20T12:31:43.446Z,33
2015-02-20T12:31:52.279Z,33
2015-02-20T12:32:01.054Z,33
2015-02-20T12:32:10.763Z,33
2015-02-20T12:32:20.513Z,33
2015-02-20T12:32:29.390Z,33
2015-02-20T12:32:38.155Z,33
2015-02-20T12:32:46.872Z,33
2015-02-20T12:32:55.571Z,33
2015-02-20T12:33:04.261Z,33
2015-02-20T12:33:14.037Z,33
2015-02-20T12:33:23.944Z,33
2015-02-20T12:33:32.909Z,33
2015-02-20T12:33:41.770Z,33
2015-02-20T12:33:50.468Z,33
2015-02-20T12:33:59.187Z,33
2015-02-20T12:34:07.953Z,33
2015-02-20T12:34:17.352Z,33
2015-02-20T12:34:27.686Z,33
2015-02-20T12:34:37.356Z,32
2015-02-20T12:34:46.189Z,32
2015-02-20T12:34:54.957Z,32
2015-02-20T12:35:03.653Z,32
2015-02-20T12:35:12.494Z,32
2015-02-20T12:35:21.614Z,32
2015-02-20T12:35:32.310Z,32
2015-02-20T12:35:42.507Z,32
2015-02-20T12:35:51.355Z,32
2015-02-20T12:36:00.467Z,32
2015-02-20T12:36:09.312Z,32
2015-02-20T12:36:18.181Z,32
2015-02-20T12:36:27.105Z,32
2015-02-20T12:36:36.419Z,32
2015-02-20T12:36:45.443Z,32
2015-02-20T12:36:54.432Z,32
2015-02-20T12:37:03.493Z,32
2015-02-20T12:37:13.070Z,32
2015-02-20T12:37:22.150Z,32
2015-02-20T12:37:31.151Z,32
2015-02-20T12:37:39.976Z,32
2015-02-20T12:37:48.920Z,32
2015-02-20T12:37:57.868Z,32
2015-02-20T12:38:07.808Z,32
2015-02-20T12:38:16.593Z,32
2015-02-20T12:38:25.393Z,32
2015-02-20T12:38:34.167Z,32
2015-02-20T12:38:42.928Z,32
2015-02-20T12:38:51.689Z,32
2015-02-20T12:39:01.202Z,32
2015-02-20T12:39:09.977Z,32
2015-02-20T12:39:18.797Z,32
2015-02-20T12:39:27.502Z,32
2015-02-20T12:39:36.245Z,32
2015-02-20T12:39:45.100Z,32
2015-02-20T12:39:54.498Z,32
2015-02-20T12:40:03.195Z,32
2015-02-20T12:40:11.878Z,32
2015-02-20T12:40:22.696Z,31
2015-02-20T12:40:31.504Z,31
2015-02-20T12:40:40.391Z,32
2015-02-20T12:40:50.054Z,31
2015-02-20T12:40:58.891Z,31
2015-02-20T12:41:07.602Z,31
2015-02-20T12:41:17.437Z,31
2015-02-20T12:41:27.286Z,31
2015-02-20T12:41:36.811Z,31
2015-02-20T12:41:46.145Z,31
2015-02-20T12:41:55.239Z,31
2015-02-20T12:42:06.337Z,30
2015-02-20T12:42:15.075Z,31
2015-02-20T12:42:23.767Z,30
2015-02-20T12:42:32.565Z,30
2015-02-20T12:42:41.307Z,30
2015-02-20T12:42:50.209Z,30
2015-02-20T12:43:00.089Z,30
2015-02-20T12:43:09.785Z,30
2015-02-20T12:43:18.572Z,30
2015-02-20T12:43:27.365Z,30
2015-02-20T12:43:36.100Z,30
2015-02-20T12:43:44.861Z,30
2015-02-20T12:43:53.624Z,30
2015-02-20T12:44:02.322Z,30
2015-02-20T12:44:12.454Z,30
2015-02-20T12:44:22.194Z,30
2015-02-20T12:44:30.975Z,30
2015-02-20T12:44:39.743Z,30
2015-02-20T12:44:48.582Z,30
2015-02-20T12:44:57.270Z,30
2015-02-20T12:45:06.720Z,30
2015-02-20T12:45:16.746Z,31
2015-02-20T12:45:25.584Z,31
2015-02-20T12:45:35.076Z,31
2015-02-20T12:45:43.988Z,31
2015-02-20T12:45:53.553Z,31
2015-02-20T12:46:04.936Z,31
2015-02-20T12:46:14.103Z,31
2015-02-20T12:46:23.002Z,31
2015-02-20T12:46:31.831Z,31
2015-02-20T12:46:40.857Z,31
2015-02-20T12:46:49.834Z,31
2015-02-20T12:46:59.683Z,31
2015-02-20T12:47:09.600Z,31
2015-02-20T12:47:19.171Z,31
2015-02-20T12:47:29.935Z,31
2015-02-20T12:47:38.681Z,31
2015-02-20T12:47:47.558Z,31
2015-02-20T12:47:56.431Z,31
2015-02-20T12:48:05.184Z,31
2015-02-20T12:48:13.938Z,31
2015-02-20T12:48:23.884Z,31
2015-02-20T12:48:32.612Z,31
2015-02-20T12:48:41.294Z,31
2015-02-20T12:48:50.045Z,31
2015-02-20T12:48:58.866Z,31
2015-02-20T12:49:07.818Z,31
2015-02-20T12:49:17.475Z,31
2015-02-20T12:49:26.179Z,31
2015-02-20T12:49:35.167Z,31
2015-02-20T12:49:44.370Z,31
2015-02-20T12:49:53.349Z,31
2015-02-20T12:50:02.050Z,31
2015-02-20T12:50:10.749Z,31
2015-02-20T12:50:19.770Z,31
2015-02-20T12:50:29.056Z,31
2015-02-20T12:50:38.913Z,31
2015-02-20T12:50:47.975Z,31
2015-02-20T12:50:57.528Z,31
2015-02-20T12:51:06.996Z,31
2015-02-20T12:51:16.055Z,31
2015-02-20T12:51:25.085Z,31
2015-02-20T12:51:33.915Z,31
2015-02-20T12:51:42.686Z,31
2015-02-20T12:51:51.740Z,31
2015-02-20T12:52:01.854Z,31
2015-02-20T12:52:11.937Z,31
2015-02-20T12:52:20.717Z,31
2015-02-20T12:52:29.552Z,31
2015-02-20T12:52:38.381Z,31
2015-02-20T12:52:47.338Z,31
2015-02-20T12:52:57.009Z,31
2015-02-20T12:53:08.103Z,31
2015-02-20T12:53:16.806Z,31
2015-02-20T12:53:25.559Z,31
2015-02-20T12:53:34.445Z,31
2015-02-20T12:53:43.134Z,31
2015-02-20T12:53:54.161Z,31
2015-02-20T12:54:03.026Z,31
2015-02-20T12:54:11.801Z,31
2015-02-20T12:54:20.575Z,31
2015-02-20T12:54:29.385Z,31
2015-02-20T12:54:38.306Z,31
2015-02-20T12:54:48.293Z,31
2015-02-20T12:54:58.323Z,31
2015-02-20T12:55:07.326Z,31
2015-02-20T12:55:17.274Z,31
2015-02-20T12:55:25.969Z,31
2015-02-20T12:55:34.750Z,31
2015-02-20T12:55:43.451Z,31
2015-02-20T12:55:53.055Z,30
2015-02-20T12:56:01.893Z,30
2015-02-20T12:56:11.049Z,30
2015-02-20T12:56:21.009Z,31
2015-02-20T12:56:29.822Z,31
2015-02-20T12:56:38.626Z,31
2015-02-20T12:56:47.389Z,31
2015-02-20T12:56:56.315Z,30
2015-02-20T12:57:05.298Z,30
2015-02-20T12:57:14.085Z,30
2015-02-20T12:57:23.561Z,30
2015-02-20T12:57:32.397Z,30
2015-02-20T12:57:41.366Z,30
2015-02-20T12:57:50.261Z,30
2015-02-20T12:57:58.964Z,30
2015-02-20T12:58:07.815Z,30
2015-02-20T12:58:16.517Z,30
2015-02-20T12:58:25.333Z,30
2015-02-20T12:58:34.103Z,30
2015-02-20T12:58:43.596Z,30
2015-02-20T12:58:52.470Z,30
2015-02-20T12:59:02.645Z,30
2015-02-20T12:59:12.664Z,31
2015-02-20T12:59:21.632Z,31
2015-02-20T12:59:30.613Z,31
2015-02-20T12:59:39.331Z,31
2015-02-20T12:59:48.185Z,31
2015-02-20T12:59:56.916Z,30
2015-02-20T13:00:07.369Z,30
2015-02-20T13:00:17.145Z,30
2015-02-20T13:00:26.060Z,30
2015-02-20T13:00:34.961Z,30
2015-02-20T13:00:44.318Z,30
2015-02-20T13:00:53.411Z,30
2015-02-20T13:01:02.171Z,30
2015-02-20T13:01:10.930Z,30
2015-02-20T13:01:19.646Z,30
2015-02-20T13:01:28.541Z,30
2015-02-20T13:01:37.249Z,30
2015-02-20T13:01:46.651Z,30
2015-02-20T13:01:55.349Z,30
2015-02-20T13:02:04.110Z,30
2015-02-20T13:02:12.954Z,30
2015-02-20T13:02:21.840Z,30
2015-02-20T13:02:30.730Z,29
2015-02-20T13:02:39.510Z,30
2015-02-20T13:02:48.311Z,29
2015-02-20T13:02:57.090Z,29
2015-02-20T13:03:05.880Z,29
2015-02-20T13:03:14.595Z,29
2015-02-20T13:03:24.048Z,29
2015-02-20T13:03:32.853Z,29
2015-02-20T13:03:43.181Z,29
2015-02-20T13:03:53.199Z,29
2015-02-20T13:04:01.979Z,29
2015-02-20T13:04:10.692Z,29
2015-02-20T13:04:19.413Z,29
2015-02-20T13:04:28.118Z,29
2015-02-20T13:04:37.530Z,29
2015-02-20T13:04:48.484Z,29
2015-02-20T13:04:57.295Z,29
2015-02-20T13:05:06.148Z,29
2015-02-20T13:05:15.110Z,29
2015-02-20T13:05:23.883Z,29
2015-02-20T13:05:32.615Z,29
2015-02-20T13:05:41.426Z,29
2015-02-20T13:05:50.141Z,29
2015-02-20T13:05:58.844Z,29
2015-02-20T13:06:07.547Z,29
2015-02-20T13:06:16.258Z,29
2015-02-20T13:06:24.983Z,28
2015-02-20T13:06:34.559Z,29
2015-02-20T13:06:43.533Z,29
2015-02-20T13:06:52.456Z,29
2015-02-20T13:07:01.259Z,28
2015-02-20T13:07:11.144Z,28